createdAt,value
2023-05-14T00:01:25.369Z,99.90
2023-05-14T00:03:54.158Z,99.90
2023-05-14T00:06:22.861Z,99.90
2023-05-14T00:08:51.427Z,99.90
2023-05-14T00:11:20.420Z,99.90
2023-05-14T00:13:48.986Z,99.90
2023-05-14T00:16:18.956Z,99.90
2023-05-14T00:18:47.562Z,99.90
2023-05-14T00:21:16.051Z,99.90
2023-05-14T00:23:44.793Z,99.90
2023-05-14T00:26:13.429Z,99.90
2023-05-14T00:28:41.988Z,99.90
2023-05-14T00:31:10.630Z,99.90
2023-05-14T00:33:40.578Z,99.90
2023-05-14T00:36:10.251Z,99.90
2023-05-14T00:38:38.765Z,99.90
2023-05-14T00:41:07.293Z,99.90
2023-05-14T00:43:35.992Z,99.90
2023-05-14T00:46:04.583Z,99.90
2023-05-14T00:48:33.200Z,99.90
2023-05-14T00:51:03.255Z,99.90
2023-05-14T00:53:32.024Z,99.90
2023-05-14T00:56:00.803Z,99.90
2023-05-14T00:58:29.597Z,99.90
2023-05-14T01:00:58.163Z,99.90
2023-05-14T01:03:26.773Z,99.90
2023-05-14T01:06:02.375Z,99.90
2023-05-14T01:08:42.737Z,99.90
2023-05-14T01:11:18.965Z,99.90
2023-05-14T01:14:06.950Z,99.90
2023-05-14T01:16:37.870Z,99.90
2023-05-14T01:19:09.280Z,99.90
2023-05-14T01:21:45.644Z,99.90
2023-05-14T01:24:14.294Z,99.90
2023-05-14T01:26:42.856Z,99.90
2023-05-14T01:29:17.907Z,99.90
2023-05-14T01:31:48.585Z,99.90
2023-05-14T01:34:21.253Z,99.90
2023-05-14T01:36:52.990Z,99.90
2023-05-14T01:43:07.956Z,99.90
2023-05-14T01:45:37.549Z,99.90
2023-05-14T01:48:06.748Z,99.90
2023-05-14T01:50:35.363Z,99.90
2023-05-14T01:53:05.292Z,99.90
2023-05-14T01:55:33.856Z,99.90
2023-05-14T01:58:02.363Z,99.90
2023-05-14T02:00:30.888Z,99.90
2023-05-14T02:02:59.713Z,99.90
2023-05-14T02:05:28.360Z,99.90
2023-05-14T02:07:56.902Z,99.90
2023-05-14T02:10:26.935Z,99.90
2023-05-14T02:12:55.624Z,99.90
2023-05-14T02:15:24.163Z,99.90
2023-05-14T02:17:52.821Z,99.90
2023-05-14T02:20:21.693Z,99.90
2023-05-14T02:22:50.331Z,99.90
2023-05-14T02:25:19.227Z,99.90
2023-05-14T02:27:49.769Z,99.90
2023-05-14T02:30:18.390Z,99.90
2023-05-14T02:32:47.023Z,99.90
2023-05-14T02:35:15.631Z,99.90
2023-05-14T02:37:44.518Z,99.90
2023-05-14T02:40:13.501Z,99.90
2023-05-14T02:42:42.105Z,99.90
2023-05-14T02:45:12.773Z,99.90
2023-05-14T02:47:41.668Z,99.90
2023-05-14T02:50:11.390Z,99.90
2023-05-14T02:52:40.001Z,99.90
2023-05-14T02:55:09.159Z,99.90
2023-05-14T02:57:37.739Z,99.90
2023-05-14T03:00:07.693Z,99.90
2023-05-14T03:02:38.245Z,99.90
2023-05-14T03:05:08.162Z,99.90
2023-05-14T03:07:36.742Z,99.90
2023-05-14T03:10:06.102Z,99.90
2023-05-14T03:12:34.619Z,99.90
2023-05-14T03:15:03.177Z,99.90
2023-05-14T03:17:31.877Z,99.90
2023-05-14T03:20:01.946Z,99.90
2023-05-14T03:22:30.835Z,99.90
2023-05-14T03:24:59.346Z,99.90
2023-05-14T03:27:28.153Z,99.90
2023-05-14T03:29:56.899Z,99.90
2023-05-14T03:32:25.467Z,99.90
2023-05-14T03:34:54.294Z,99.90
2023-05-14T03:37:24.234Z,99.90
2023-05-14T03:39:52.852Z,99.90
2023-05-14T03:42:21.357Z,99.90
2023-05-14T03:44:49.845Z,99.90
2023-05-14T03:47:18.385Z,99.90
2023-05-14T03:49:46.880Z,99.90
2023-05-14T03:52:15.610Z,99.90
2023-05-14T03:54:45.551Z,99.90
2023-05-14T03:57:14.064Z,99.90
2023-05-14T03:59:42.587Z,99.90
2023-05-14T04:02:11.300Z,99.90
2023-05-14T04:04:40.399Z,99.90
2023-05-14T04:07:08.972Z,99.90
2023-05-14T04:09:37.554Z,99.90
2023-05-14T04:12:08.810Z,99.90
2023-05-14T04:14:37.360Z,99.90
2023-05-14T04:17:06.322Z,99.90
2023-05-14T04:19:34.831Z,98.90
2023-05-14T04:22:03.338Z,96.90
2023-05-14T04:24:31.948Z,95.40
2023-05-14T04:27:01.388Z,94.00
2023-05-14T04:29:31.689Z,92.40
2023-05-14T04:32:00.653Z,91.50
2023-05-14T04:34:29.977Z,91.00
2023-05-14T04:36:58.515Z,90.80
2023-05-14T04:39:27.136Z,91.30
2023-05-14T04:41:55.660Z,92.50
2023-05-14T04:44:24.246Z,94.80
2023-05-14T04:46:54.131Z,96.40
2023-05-14T04:49:23.029Z,98.50
2023-05-14T04:51:51.568Z,99.90
2023-05-14T04:54:20.264Z,99.90
2023-05-14T04:56:49.036Z,99.90
2023-05-14T04:59:17.790Z,99.90
2023-05-14T05:01:46.585Z,99.90
2023-05-14T05:04:16.667Z,99.90
2023-05-14T05:06:45.548Z,99.90
2023-05-14T05:09:14.141Z,99.90
2023-05-14T05:11:42.727Z,99.90
2023-05-14T05:14:11.361Z,99.90
2023-05-14T05:16:39.934Z,99.90
2023-05-14T05:19:08.620Z,99.90
2023-05-14T05:21:41.181Z,99.90
2023-05-14T05:24:09.937Z,99.90
2023-05-14T05:26:38.565Z,99.90
2023-05-14T05:29:07.715Z,99.90
2023-05-14T05:31:36.818Z,99.90
2023-05-14T05:34:06.766Z,99.90
2023-05-14T05:36:35.451Z,99.90
2023-05-14T05:39:05.694Z,99.90
2023-05-14T05:41:34.351Z,99.90
2023-05-14T05:44:02.905Z,99.90
2023-05-14T05:46:31.429Z,99.90
2023-05-14T05:48:59.996Z,99.90
2023-05-14T05:51:28.756Z,99.90
2023-05-14T05:53:57.278Z,99.90
2023-05-14T05:56:27.247Z,99.90
2023-05-14T05:58:55.859Z,99.90
2023-05-14T06:01:24.560Z,99.90
2023-05-14T06:03:53.047Z,99.90
2023-05-14T06:06:22.049Z,99.90
2023-05-14T06:08:50.628Z,99.90
2023-05-14T06:11:19.204Z,99.90
2023-05-14T06:13:49.287Z,99.90
2023-05-14T06:16:17.879Z,99.90
2023-05-14T06:18:46.720Z,99.90
2023-05-14T06:21:15.370Z,99.90
2023-05-14T06:23:44.175Z,99.90
2023-05-14T06:26:12.751Z,99.90
2023-05-14T06:28:41.285Z,99.90
2023-05-14T06:31:11.286Z,99.90
2023-05-14T06:33:39.887Z,99.90
2023-05-14T06:36:09.550Z,99.90
2023-05-14T06:38:38.278Z,99.90
2023-05-14T06:41:06.867Z,99.90
2023-05-14T06:43:35.432Z,99.90
2023-05-14T06:46:04.160Z,99.90
2023-05-14T06:48:34.307Z,99.90
2023-05-14T06:51:04.210Z,99.10
2023-05-14T06:53:32.894Z,98.20
2023-05-14T06:56:01.698Z,98.40
2023-05-14T06:58:58.401Z,98.90
2023-05-14T07:01:27.223Z,97.00
2023-05-14T07:03:58.047Z,96.50
2023-05-14T07:06:26.884Z,96.50
2023-05-14T07:08:55.822Z,96.60
2023-05-14T07:11:24.563Z,95.20
2023-05-14T07:13:53.300Z,92.80
2023-05-14T07:16:24.451Z,92.90
2023-05-14T07:18:53.331Z,92.80
2023-05-14T07:21:24.177Z,92.50
2023-05-14T07:23:53.483Z,90.80
2023-05-14T07:26:25.809Z,90.00
2023-05-14T07:28:54.493Z,89.10
2023-05-14T07:31:26.622Z,88.20
2023-05-14T07:33:55.438Z,89.10
2023-05-14T07:36:26.591Z,89.60
2023-05-14T07:38:55.614Z,88.40
2023-05-14T07:41:24.656Z,84.50
2023-05-14T07:43:53.585Z,86.60
2023-05-14T07:46:25.043Z,83.30
2023-05-14T07:48:54.394Z,80.50
2023-05-14T07:51:23.408Z,75.80
2023-05-14T07:53:54.738Z,77.50
2023-05-14T07:56:23.609Z,76.30
2023-05-14T07:58:53.048Z,76.20
2023-05-14T08:01:24.340Z,77.70
2023-05-14T08:03:53.680Z,78.30
2023-05-14T08:06:29.945Z,77.40
2023-05-14T08:09:06.018Z,78.30
2023-05-14T08:11:35.064Z,75.40
2023-05-14T08:14:04.988Z,75.90
2023-05-14T08:16:37.579Z,76.00
2023-05-14T08:19:11.097Z,75.00
2023-05-14T08:21:42.238Z,73.90
2023-05-14T08:24:24.464Z,74.30
2023-05-14T08:26:53.584Z,73.90
2023-05-14T08:29:22.512Z,71.40
2023-05-14T08:31:52.338Z,72.00
2023-05-14T08:34:20.985Z,73.00
2023-05-14T08:36:49.684Z,72.30
2023-05-14T08:39:19.780Z,72.20
2023-05-14T08:41:49.198Z,72.40
2023-05-14T08:44:21.754Z,72.80
2023-05-14T08:46:52.689Z,70.10
2023-05-14T08:49:40.394Z,70.90
2023-05-14T08:52:11.947Z,69.10
2023-05-14T08:54:42.605Z,69.80
2023-05-14T08:57:12.735Z,69.00
2023-05-14T08:59:41.489Z,69.10
2023-05-14T09:02:13.286Z,73.20
2023-05-14T09:04:42.959Z,70.60
2023-05-14T09:07:12.035Z,70.70
2023-05-14T09:09:42.368Z,70.50
2023-05-14T09:12:11.690Z,71.80
2023-05-14T09:14:40.337Z,68.60
2023-05-14T09:17:12.765Z,71.00
2023-05-14T09:19:41.903Z,69.80
2023-05-14T09:22:12.833Z,66.70
2023-05-14T09:24:43.340Z,68.30
2023-05-14T09:27:17.618Z,68.80
2023-05-14T09:29:46.612Z,67.30
2023-05-14T09:32:15.552Z,68.60
2023-05-14T09:34:44.511Z,65.80
2023-05-14T09:37:13.210Z,65.40
2023-05-14T09:39:43.613Z,65.00
2023-05-14T09:42:12.188Z,66.20
2023-05-14T09:44:41.307Z,67.90
2023-05-14T09:47:10.040Z,65.70
2023-05-14T09:49:38.689Z,65.30
2023-05-14T09:52:08.668Z,65.20
2023-05-14T09:54:39.967Z,64.20
2023-05-14T09:57:10.132Z,62.60
2023-05-14T09:59:38.730Z,61.60
2023-05-14T10:02:12.629Z,61.80
2023-05-14T10:04:41.976Z,60.80
2023-05-14T10:07:11.167Z,61.90
2023-05-14T10:09:46.566Z,62.00
2023-05-14T10:12:18.421Z,63.50
2023-05-14T10:14:53.414Z,61.50
2023-05-14T10:17:23.551Z,62.40
2023-05-14T10:19:55.883Z,60.20
2023-05-14T10:22:27.365Z,60.90
2023-05-14T10:24:57.221Z,61.20
2023-05-14T10:27:28.060Z,59.70
2023-05-14T10:29:58.048Z,61.10
2023-05-14T10:32:27.632Z,60.60
2023-05-14T10:34:56.348Z,59.90
2023-05-14T10:37:26.883Z,61.30
2023-05-14T10:39:59.677Z,66.80
2023-05-14T10:42:33.805Z,59.30
2023-05-14T10:45:07.630Z,59.70
2023-05-14T10:47:38.286Z,63.00
2023-05-14T10:50:08.449Z,60.30
2023-05-14T10:52:37.419Z,60.50
2023-05-14T10:55:08.495Z,59.90
2023-05-14T10:57:41.349Z,60.50
2023-05-14T11:00:11.259Z,61.50
2023-05-14T11:02:42.868Z,65.40
2023-05-14T11:05:14.416Z,63.20
2023-05-14T11:07:45.285Z,59.00
2023-05-14T11:10:15.407Z,60.50
2023-05-14T11:12:46.908Z,59.20
2023-05-14T11:15:17.932Z,60.10
2023-05-14T11:17:47.902Z,59.10
2023-05-14T11:20:17.158Z,59.40
2023-05-14T11:22:48.116Z,58.50
2023-05-14T11:25:18.536Z,57.50
2023-05-14T11:27:48.967Z,57.60
2023-05-14T11:30:18.865Z,57.20
2023-05-14T11:32:49.433Z,57.70
2023-05-14T11:35:18.991Z,57.80
2023-05-14T11:37:53.342Z,56.10
2023-05-14T11:40:22.679Z,57.00
2023-05-14T11:42:54.859Z,57.30
2023-05-14T11:45:28.181Z,58.30
2023-05-14T11:47:56.752Z,56.70
2023-05-14T11:50:25.496Z,58.30
2023-05-14T11:52:58.873Z,56.30
2023-05-14T11:55:27.528Z,54.10
2023-05-14T11:57:57.995Z,54.50
2023-05-14T12:00:28.395Z,55.90
2023-05-14T12:02:57.087Z,56.30
2023-05-14T12:05:26.243Z,55.70
2023-05-14T12:07:56.620Z,57.40
2023-05-14T12:10:25.700Z,56.40
2023-05-14T12:12:54.874Z,58.60
2023-05-14T12:15:25.411Z,58.30
2023-05-14T12:17:54.085Z,57.30
2023-05-14T12:20:23.234Z,58.00
2023-05-14T12:22:51.980Z,57.10
2023-05-14T12:25:20.755Z,57.00
2023-05-14T12:27:49.287Z,57.90
2023-05-14T12:30:21.965Z,57.40
2023-05-14T12:32:53.425Z,58.10
2023-05-14T12:35:23.513Z,55.80
2023-05-14T12:37:53.515Z,55.70
2023-05-14T12:40:22.339Z,56.40
2023-05-14T12:42:51.174Z,55.70
2023-05-14T12:45:19.818Z,55.80
2023-05-14T12:47:48.632Z,56.40
2023-05-14T12:50:18.866Z,55.80
2023-05-14T12:52:47.952Z,56.70
2023-05-14T12:55:16.849Z,55.70
2023-05-14T12:57:45.628Z,54.30
2023-05-14T13:00:15.446Z,54.30
2023-05-14T13:02:44.312Z,54.60
2023-05-14T13:05:13.265Z,55.10
2023-05-14T13:07:43.590Z,54.60
2023-05-14T13:10:17.656Z,54.00
2023-05-14T13:12:46.472Z,54.40
2023-05-14T13:15:16.383Z,54.50
2023-05-14T13:17:45.264Z,53.90
2023-05-14T13:20:14.079Z,53.50
2023-05-14T13:22:47.853Z,53.80
2023-05-14T13:25:16.748Z,54.20
2023-05-14T13:27:47.994Z,53.00
2023-05-14T13:30:18.315Z,52.80
2023-05-14T13:32:47.127Z,52.80
2023-05-14T13:35:15.994Z,53.00
2023-05-14T13:37:46.400Z,52.70
2023-05-14T13:40:15.456Z,52.50
2023-05-14T13:42:46.882Z,52.90
2023-05-14T13:45:15.451Z,53.40
2023-05-14T13:47:44.645Z,52.40
2023-05-14T13:50:14.228Z,52.10
2023-05-14T13:52:47.276Z,51.50
2023-05-14T13:55:16.152Z,51.50
2023-05-14T13:57:44.838Z,52.30
2023-05-14T14:00:15.521Z,51.70
2023-05-14T14:02:44.070Z,52.50
2023-05-14T14:05:12.727Z,52.90
2023-05-14T14:07:41.532Z,52.30
2023-05-14T14:10:12.568Z,51.90
2023-05-14T14:12:41.177Z,51.70
2023-05-14T14:15:10.635Z,52.20
2023-05-14T14:17:39.221Z,52.60
2023-05-14T14:20:10.598Z,53.20
2023-05-14T14:22:39.170Z,53.10
2023-05-14T14:25:08.782Z,53.20
2023-05-14T14:27:39.032Z,53.30
2023-05-14T14:30:10.178Z,54.70
2023-05-14T14:32:38.742Z,54.70
2023-05-14T14:35:08.047Z,55.10
2023-05-14T14:37:36.733Z,53.70
2023-05-14T14:40:07.467Z,54.00
2023-05-14T14:42:37.775Z,53.70
2023-05-14T14:45:07.536Z,53.50
2023-05-14T14:47:36.378Z,53.00
2023-05-14T14:50:05.312Z,53.40
2023-05-14T14:52:34.214Z,54.70
2023-05-14T14:55:02.757Z,55.90
2023-05-14T14:57:31.639Z,55.00
2023-05-14T15:00:02.558Z,54.80
2023-05-14T15:02:31.927Z,55.10
2023-05-14T15:05:00.541Z,54.50
2023-05-14T15:07:33.171Z,53.20
2023-05-14T15:10:02.170Z,53.20
2023-05-14T15:12:33.517Z,51.80
2023-05-14T15:15:04.178Z,51.10
2023-05-14T15:17:32.777Z,51.60
2023-05-14T15:20:01.351Z,51.70
2023-05-14T15:22:47.949Z,50.70
2023-05-14T15:25:34.803Z,51.70
2023-05-14T15:28:19.735Z,50.70
2023-05-14T15:31:03.935Z,49.60
2023-05-14T15:33:52.606Z,49.50
2023-05-14T15:36:32.403Z,50.50
2023-05-14T15:39:13.403Z,50.30
2023-05-14T15:41:55.664Z,51.00
2023-05-14T15:44:38.961Z,51.90
2023-05-14T15:47:20.195Z,51.90
2023-05-14T15:49:59.145Z,52.90
2023-05-14T15:52:40.956Z,53.00
2023-05-14T15:55:23.999Z,54.40
2023-05-14T15:58:05.463Z,54.90
2023-05-14T16:00:48.419Z,55.20
2023-05-14T16:03:36.005Z,55.00
2023-05-14T16:06:17.382Z,55.70
2023-05-14T16:08:59.263Z,55.60
2023-05-14T16:11:37.861Z,55.20
2023-05-14T16:14:15.945Z,56.10
2023-05-14T16:16:54.248Z,55.90
2023-05-14T16:19:34.379Z,55.30
2023-05-14T16:22:05.328Z,55.60
2023-05-14T16:24:38.984Z,55.30
2023-05-14T16:27:07.872Z,55.50
2023-05-14T16:29:36.898Z,56.20
2023-05-14T16:32:05.780Z,56.20
2023-05-14T16:34:35.789Z,57.10
2023-05-14T16:37:04.440Z,57.60
2023-05-14T16:39:33.003Z,57.30
2023-05-14T16:42:01.569Z,57.30
2023-05-14T16:44:30.182Z,57.50
2023-05-14T16:46:58.714Z,57.30
2023-05-14T16:49:27.295Z,57.70
2023-05-14T16:51:57.330Z,58.10
2023-05-14T16:54:26.051Z,58.10
2023-05-14T16:56:55.088Z,58.10
2023-05-14T16:59:28.242Z,57.90
2023-05-14T17:01:58.486Z,57.60
2023-05-14T17:04:27.532Z,58.10
2023-05-14T17:06:58.792Z,58.50
2023-05-14T17:09:27.604Z,58.90
2023-05-14T17:11:56.163Z,59.50
2023-05-14T17:14:24.975Z,59.20
2023-05-14T17:16:53.770Z,59.00
2023-05-14T17:19:22.439Z,58.80
2023-05-14T17:21:51.392Z,59.10
2023-05-14T17:24:21.473Z,58.90
2023-05-14T17:26:50.294Z,59.30
2023-05-14T17:29:18.864Z,59.30
2023-05-14T17:31:48.385Z,59.90
2023-05-14T17:34:18.002Z,59.70
2023-05-14T17:36:47.076Z,60.00
2023-05-14T17:39:16.213Z,59.80
2023-05-14T17:41:48.652Z,60.20
2023-05-14T17:44:17.335Z,60.50
2023-05-14T17:46:46.254Z,60.70
2023-05-14T17:49:15.554Z,61.80
2023-05-14T17:51:44.081Z,62.40
2023-05-14T17:54:12.716Z,62.70
2023-05-14T17:56:41.486Z,63.30
2023-05-14T17:59:11.413Z,64.10
2023-05-14T18:01:39.940Z,64.40
2023-05-14T18:04:08.780Z,64.70
2023-05-14T18:06:37.769Z,65.80
2023-05-14T18:09:06.520Z,66.00
2023-05-14T18:11:35.762Z,65.70
2023-05-14T18:14:05.033Z,66.50
2023-05-14T18:16:35.117Z,66.40
2023-05-14T18:19:03.901Z,66.60
2023-05-14T18:21:32.616Z,67.40
2023-05-14T18:24:01.212Z,68.10
2023-05-14T18:26:31.271Z,69.00
2023-05-14T18:29:01.522Z,69.20
2023-05-14T18:31:30.441Z,70.10
2023-05-14T18:34:00.419Z,70.70
2023-05-14T18:36:29.037Z,71.10
2023-05-14T18:38:57.723Z,71.30
2023-05-14T18:41:26.863Z,71.80
2023-05-14T18:43:55.783Z,72.40
2023-05-14T18:46:24.824Z,73.00
2023-05-14T18:48:53.495Z,73.00
2023-05-14T18:51:23.476Z,73.50
2023-05-14T18:53:52.225Z,73.90
2023-05-14T18:56:21.660Z,74.30
2023-05-14T18:58:50.296Z,74.70
2023-05-14T19:01:18.832Z,74.90
2023-05-14T19:03:47.491Z,75.00
2023-05-14T19:06:16.279Z,75.30
2023-05-14T19:08:58.769Z,75.60
2023-05-14T19:11:27.332Z,75.80
2023-05-14T19:13:55.999Z,76.40
2023-05-14T19:16:24.895Z,76.60
2023-05-14T19:18:53.770Z,77.10
2023-05-14T19:21:22.339Z,77.30
2023-05-14T19:23:50.921Z,77.10
2023-05-14T19:26:21.667Z,77.50
2023-05-14T19:28:51.288Z,77.90
2023-05-14T19:31:20.067Z,78.10
2023-05-14T19:33:48.831Z,78.20
2023-05-14T19:36:18.906Z,78.40
2023-05-14T19:38:47.636Z,78.80
2023-05-14T19:41:16.651Z,79.30
2023-05-14T19:43:46.618Z,79.90
2023-05-14T19:46:15.286Z,80.40
2023-05-14T19:48:43.835Z,80.60
2023-05-14T19:51:12.384Z,81.20
2023-05-14T19:53:41.409Z,81.50
2023-05-14T19:56:10.070Z,81.90
2023-05-14T19:58:38.711Z,82.30
2023-05-14T20:01:11.022Z,82.30
2023-05-14T20:03:39.854Z,83.00
2023-05-14T20:06:08.574Z,82.90
2023-05-14T20:08:37.791Z,83.30
2023-05-14T20:11:06.621Z,83.60
2023-05-14T20:13:36.809Z,84.00
2023-05-14T20:16:05.554Z,84.40
2023-05-14T20:18:35.915Z,84.30
2023-05-14T20:21:04.776Z,84.60
2023-05-14T20:23:33.812Z,85.10
2023-05-14T20:26:02.637Z,85.10
2023-05-14T20:28:31.234Z,85.50
2023-05-14T20:31:01.477Z,85.50
2023-05-14T20:33:30.576Z,85.90
2023-05-14T20:36:03.701Z,85.90
2023-05-14T20:38:33.203Z,86.40
2023-05-14T20:41:02.355Z,86.50
2023-05-14T20:43:33.325Z,87.10
2023-05-14T20:46:02.546Z,87.20
2023-05-14T20:48:31.630Z,88.00
2023-05-14T20:51:01.901Z,88.00
2023-05-14T20:53:31.484Z,88.20
2023-05-14T20:56:01.451Z,88.40
2023-05-14T20:58:30.104Z,88.50
2023-05-14T21:01:00.445Z,89.20
2023-05-14T21:03:29.329Z,89.00
2023-05-14T21:05:58.441Z,89.30
2023-05-14T21:08:30.432Z,89.40
2023-05-14T21:10:59.043Z,90.00
2023-05-14T21:13:27.553Z,89.70
2023-05-14T21:15:56.391Z,89.70
2023-05-14T21:18:27.337Z,89.40
2023-05-14T21:20:56.032Z,89.80
2023-05-14T21:23:28.635Z,89.90
2023-05-14T21:25:59.032Z,90.00
2023-05-14T21:28:27.674Z,89.90
2023-05-14T21:30:56.616Z,89.70
2023-05-14T21:33:26.004Z,89.90
2023-05-14T21:35:54.683Z,89.90
2023-05-14T21:38:23.322Z,89.90
2023-05-14T21:40:51.916Z,90.10
2023-05-14T21:43:22.425Z,90.00
2023-05-14T21:45:51.119Z,89.70
2023-05-14T21:48:20.247Z,90.00
2023-05-14T21:50:48.956Z,90.00
2023-05-14T21:53:17.663Z,89.80
2023-05-14T21:55:46.303Z,90.00
2023-05-14T21:58:14.945Z,90.00
2023-05-14T22:00:45.097Z,90.10
2023-05-14T22:03:13.875Z,89.90
2023-05-14T22:05:42.580Z,90.30
2023-05-14T22:08:11.951Z,90.20
2023-05-14T22:10:41.119Z,90.30
2023-05-14T22:13:09.648Z,90.40
2023-05-14T22:15:38.274Z,90.30
2023-05-14T22:18:08.543Z,90.30
2023-05-14T22:20:37.248Z,90.40
2023-05-14T22:23:05.928Z,90.40
2023-05-14T22:25:34.499Z,90.50
2023-05-14T22:28:03.154Z,90.50
2023-05-14T22:30:31.803Z,90.60
2023-05-14T22:33:00.370Z,90.70
2023-05-14T22:35:30.498Z,90.80
2023-05-14T22:37:59.081Z,90.80
2023-05-14T22:40:27.658Z,90.50
2023-05-14T22:42:56.265Z,90.60
2023-05-14T22:45:25.432Z,90.60
2023-05-14T22:47:54.455Z,90.70
2023-05-14T22:50:23.023Z,90.80
2023-05-14T22:52:52.976Z,91.00
2023-05-14T22:55:21.768Z,90.90
2023-05-14T22:57:50.599Z,90.50
2023-05-14T23:00:19.905Z,90.60
2023-05-14T23:02:48.762Z,90.50
2023-05-14T23:05:17.451Z,90.60
2023-05-14T23:07:46.069Z,90.30
2023-05-14T23:10:16.180Z,90.30
2023-05-14T23:12:44.695Z,90.40
2023-05-14T23:15:13.418Z,90.30
2023-05-14T23:17:42.941Z,90.20
2023-05-14T23:20:12.810Z,89.90
2023-05-14T23:22:41.538Z,90.00
2023-05-14T23:25:11.151Z,89.30
2023-05-14T23:27:41.260Z,89.60
2023-05-14T23:30:10.808Z,90.00
2023-05-14T23:32:39.390Z,90.00
2023-05-14T23:35:08.349Z,89.60
2023-05-14T23:37:41.833Z,90.10
2023-05-14T23:40:11.358Z,90.10
2023-05-14T23:42:41.331Z,90.00
2023-05-14T23:45:10.946Z,90.00
2023-05-14T23:47:39.561Z,90.10
2023-05-14T23:50:08.729Z,89.90
2023-05-14T23:52:37.303Z,89.60
2023-05-14T23:55:06.642Z,89.90
2023-05-14T23:57:35.287Z,90.00
